createdAt,value
2022-11-05T00:01:10.563Z,10.30
2022-11-05T00:02:10.067Z,10.89
2022-11-05T00:03:10.770Z,9.399
2022-11-05T00:04:10.377Z,9.699
2022-11-05T00:05:10.580Z,9
2022-11-05T00:06:09.976Z,9.399
2022-11-05T00:07:10.617Z,10.10
2022-11-05T00:08:10.092Z,10.5
2022-11-05T00:09:10.025Z,9.699
2022-11-05T00:11:15.174Z,8.699
2022-11-05T00:12:10.371Z,8
2022-11-05T00:16:10.693Z,8.300
2022-11-05T00:17:10.335Z,7.900
2022-11-05T00:18:09.800Z,8.899
2022-11-05T00:19:10.438Z,7.900
2022-11-05T00:20:10.189Z,8.199
2022-11-05T00:22:10.517Z,9.800
2022-11-05T00:23:10.137Z,8.399
2022-11-05T00:24:10.028Z,8.699
2022-11-05T00:25:10.893Z,8.399
2022-11-05T00:26:10.950Z,7.800
2022-11-05T00:27:10.419Z,8.300
2022-11-05T00:28:09.732Z,9.199
2022-11-05T00:29:10.482Z,9
2022-11-05T00:30:10.074Z,8.600
2022-11-05T00:31:10.660Z,9.699
2022-11-05T00:32:10.185Z,9.899
2022-11-05T00:33:10.619Z,9.100
2022-11-05T00:34:10.452Z,9.300
2022-11-05T00:35:09.645Z,10.80
2022-11-05T00:36:10.396Z,10.39
2022-11-05T00:37:10.337Z,10.30
2022-11-05T00:38:09.843Z,12.10
2022-11-05T00:39:10.386Z,10.60
2022-11-05T00:40:09.944Z,12.10
2022-11-05T00:41:10.015Z,10.39
2022-11-05T00:42:10.517Z,11.39
2022-11-05T00:43:10.141Z,10.60
2022-11-05T00:44:09.751Z,10.5
2022-11-05T00:45:09.856Z,12.5
2022-11-05T00:46:10.263Z,12.60
2022-11-05T00:47:10.607Z,11.89
2022-11-05T00:48:10.133Z,12
2022-11-05T00:49:10.616Z,11.89
2022-11-05T00:50:10.114Z,11.10
2022-11-05T00:51:10.215Z,11.19
2022-11-05T00:52:10.428Z,10.69
2022-11-05T00:53:10.967Z,11.30
2022-11-05T00:55:09.830Z,11.10
2022-11-05T00:56:09.930Z,10.69
2022-11-05T00:57:09.929Z,11.60
2022-11-05T00:58:10.248Z,9.899
2022-11-05T00:59:10.370Z,9.699
2022-11-05T01:00:10.499Z,10.89
2022-11-05T01:02:10.838Z,11.5
2022-11-05T01:03:11.102Z,10.19
2022-11-05T01:04:09.884Z,10.30
2022-11-05T01:05:10.456Z,12
2022-11-05T01:06:10.096Z,11.5
2022-11-05T01:07:10.441Z,12.30
2022-11-05T01:08:09.925Z,13
2022-11-05T01:09:09.909Z,13.60
2022-11-05T01:10:10.597Z,13.39
2022-11-05T01:11:10.057Z,12.80
2022-11-05T01:12:10.417Z,11.89
2022-11-05T01:13:12.942Z,11.69
2022-11-05T01:14:09.751Z,12.80
2022-11-05T01:15:10.263Z,12.89
2022-11-05T01:16:09.863Z,13.10
2022-11-05T01:17:09.861Z,13.5
2022-11-05T01:18:10.199Z,12.10
2022-11-05T01:19:10.270Z,12.19
2022-11-05T01:20:10.691Z,14.39
2022-11-05T01:21:09.601Z,11.89
2022-11-05T01:22:10.197Z,12.69
2022-11-05T01:23:13.563Z,12.30
2022-11-05T01:24:10.005Z,13.60
2022-11-05T01:25:10.468Z,12.30
2022-11-05T01:26:09.889Z,12
2022-11-05T01:27:10.313Z,11.39
2022-11-05T01:28:10.030Z,11.60
2022-11-05T01:29:10.305Z,11.89
2022-11-05T01:30:11.023Z,11.5
2022-11-05T01:31:10.350Z,11.19
2022-11-05T01:32:10.624Z,11.80
2022-11-05T01:33:10.145Z,12.80
2022-11-05T01:34:10.657Z,12.39
2022-11-05T01:35:10.038Z,12
2022-11-05T01:36:10.529Z,13.19
2022-11-05T01:37:10.538Z,13.69
2022-11-05T01:38:09.903Z,13.60
2022-11-05T01:39:10.336Z,13.80
2022-11-05T01:40:11.038Z,14.30
2022-11-05T01:41:09.976Z,14.19
2022-11-05T01:42:10.458Z,14.80
2022-11-05T01:43:10.146Z,14.89
2022-11-05T01:44:09.789Z,13.80
2022-11-05T01:45:09.925Z,14.69
2022-11-05T01:46:10.413Z,13.69
2022-11-05T01:48:09.750Z,14.19
2022-11-05T01:50:10.529Z,15.39
2022-11-05T01:51:09.860Z,15.60
2022-11-05T01:52:10.169Z,15.19
2022-11-05T01:53:10.984Z,15.69
2022-11-05T01:54:09.726Z,15.39
2022-11-05T01:55:10.234Z,15.69
2022-11-05T01:56:10.713Z,14.39
2022-11-05T01:57:10.001Z,15.30
2022-11-05T01:58:10.455Z,14.80
2022-11-05T01:59:09.638Z,14.10
2022-11-05T02:00:10.702Z,14.19
2022-11-05T02:01:10.609Z,15.19
2022-11-05T02:02:10.004Z,12.89
2022-11-05T02:03:10.941Z,13.89
2022-11-05T02:04:11.057Z,13.80
2022-11-05T02:05:10.130Z,12.69
2022-11-05T02:06:09.626Z,13.69
2022-11-05T02:07:09.677Z,13.10
2022-11-05T02:08:10.020Z,11.89
2022-11-05T02:09:10.550Z,13.19
2022-11-05T02:10:10.268Z,12.39
2022-11-05T02:11:10.662Z,13.39
2022-11-05T02:12:09.983Z,13.19
2022-11-05T02:13:10.610Z,13
2022-11-05T02:14:10.381Z,11.69
2022-11-05T02:16:09.861Z,12.10
2022-11-05T02:17:10.145Z,12.5
2022-11-05T02:18:10.812Z,12.10
2022-11-05T02:19:10.012Z,12.30
2022-11-05T02:20:10.675Z,12.19
2022-11-05T02:21:09.818Z,13.19
2022-11-05T02:22:10.006Z,13.80
2022-11-05T02:23:10.909Z,13
2022-11-05T02:24:10.525Z,12.5
2022-11-05T02:25:09.886Z,14.10
2022-11-05T02:26:10.201Z,13.10
2022-11-05T02:27:10.339Z,12.69
2022-11-05T02:28:09.665Z,12.80
2022-11-05T02:29:09.979Z,12.19
2022-11-05T02:30:10.775Z,11.80
2022-11-05T02:32:10.485Z,12.19
2022-11-05T02:33:10.129Z,11
2022-11-05T02:35:10.402Z,10
2022-11-05T02:36:10.765Z,10.10
2022-11-05T02:37:09.281Z,10
2022-11-05T02:38:09.731Z,10.10
2022-11-05T02:40:10.678Z,9.399
2022-11-05T02:41:09.973Z,10
2022-11-05T02:43:10.614Z,9.399
2022-11-05T02:44:10.253Z,10
2022-11-05T02:45:10.869Z,9.899
2022-11-05T02:46:10.393Z,9.800
2022-11-05T02:47:14.110Z,9.300
2022-11-05T02:48:10.563Z,8.899
2022-11-05T02:49:09.751Z,9.300
2022-11-05T02:52:10.158Z,9
2022-11-05T02:53:10.817Z,9.100
2022-11-05T02:54:10.412Z,9.5
2022-11-05T02:55:11.080Z,8.800
2022-11-05T02:56:10.741Z,8.5
2022-11-05T02:57:10.042Z,8.600
2022-11-05T02:58:10.677Z,8.199
2022-11-05T02:59:10.063Z,7.800
2022-11-05T03:00:11.229Z,7.900
2022-11-05T03:01:10.194Z,8.600
2022-11-05T03:02:10.682Z,8.800
2022-11-05T03:03:10.540Z,8.5
2022-11-05T03:04:09.966Z,8.100
2022-11-05T03:05:10.469Z,7.699
2022-11-05T03:06:10.032Z,7.900
2022-11-05T03:08:10.428Z,7.699
2022-11-05T03:09:10.924Z,8.100
2022-11-05T03:10:10.599Z,7.800
2022-11-05T03:11:09.568Z,8.199
2022-11-05T03:12:09.735Z,8.300
2022-11-05T03:13:10.325Z,8.199
2022-11-05T03:14:09.783Z,7.900
2022-11-05T03:15:10.302Z,7.699
2022-11-05T03:17:09.755Z,7.800
2022-11-05T03:18:10.293Z,7.300
2022-11-05T03:19:10.611Z,7.199
2022-11-05T03:20:09.926Z,7.699
2022-11-05T03:21:10.320Z,6.900
2022-11-05T03:22:09.765Z,6.699
2022-11-05T03:23:09.997Z,6.900
2022-11-05T03:24:10.510Z,6.800
2022-11-05T03:25:09.723Z,6.900
2022-11-05T03:26:10.304Z,6.400
2022-11-05T03:27:10.944Z,6.5
2022-11-05T03:28:10.729Z,6.300
2022-11-05T03:29:10.354Z,6.199
2022-11-05T03:31:09.752Z,6.300
2022-11-05T03:32:10.157Z,6
2022-11-05T03:33:10.897Z,6.199
2022-11-05T03:34:10.421Z,5.300
2022-11-05T03:35:09.600Z,5.800
2022-11-05T03:36:09.743Z,5.699
2022-11-05T03:37:09.952Z,6
2022-11-05T03:38:10.147Z,5.699
2022-11-05T03:39:10.691Z,5.800
2022-11-05T03:40:10.203Z,4.900
2022-11-05T03:41:09.736Z,5.099
2022-11-05T03:42:09.878Z,5.199
2022-11-05T03:43:10.219Z,5.400
2022-11-05T03:44:09.691Z,5.099
2022-11-05T03:47:10.463Z,4.900
2022-11-05T03:48:09.724Z,5.199
2022-11-05T03:49:10.466Z,4.800
2022-11-05T03:51:09.860Z,4.599
2022-11-05T03:53:10.581Z,4.900
2022-11-05T03:54:10.014Z,4.699
2022-11-05T03:56:10.054Z,5
2022-11-05T03:57:10.494Z,4.900
2022-11-05T03:58:09.814Z,5
2022-11-05T03:59:10.096Z,4.900
2022-11-05T04:00:10.854Z,4.400
2022-11-05T04:01:10.537Z,4.800
2022-11-05T04:02:10.207Z,4.5
2022-11-05T04:03:10.698Z,4.300
2022-11-05T04:04:10.435Z,4.699
2022-11-05T04:05:09.923Z,4.400
2022-11-05T04:06:10.013Z,4.099
2022-11-05T04:07:10.660Z,4.199
2022-11-05T04:09:10.572Z,4
2022-11-05T04:10:09.986Z,4.099
2022-11-05T04:11:10.158Z,4
2022-11-05T04:12:10.389Z,4.199
2022-11-05T04:13:10.631Z,4.300
2022-11-05T04:14:10.269Z,4.099
2022-11-05T04:15:10.754Z,4.199
2022-11-05T04:16:10.015Z,4.400
2022-11-05T04:17:10.435Z,4.5
2022-11-05T04:18:09.853Z,4.300
2022-11-05T04:21:10.139Z,5
2022-11-05T04:22:10.672Z,4.400
2022-11-05T04:23:10.107Z,4.599
2022-11-05T04:24:09.776Z,4.400
2022-11-05T04:25:10.645Z,4.5
2022-11-05T04:26:10.099Z,4.300
2022-11-05T04:27:10.588Z,4.099
2022-11-05T04:28:10.065Z,4.5
2022-11-05T04:29:10.473Z,4.400
2022-11-05T04:30:09.993Z,4
2022-11-05T04:31:10.145Z,4.400
2022-11-05T04:32:10.650Z,4.300
2022-11-05T04:34:09.935Z,4.400
2022-11-05T04:35:10.653Z,4.099
2022-11-05T04:36:10.181Z,4.300
2022-11-05T04:37:09.810Z,4.099
2022-11-05T04:38:10.081Z,3.700
2022-11-05T04:39:10.405Z,4.199
2022-11-05T04:40:09.859Z,3.900
2022-11-05T04:41:10.621Z,4
2022-11-05T04:42:10.358Z,3.799
2022-11-05T04:43:14.849Z,4
2022-11-05T04:44:10.583Z,4.199
2022-11-05T04:45:10.347Z,3.700
2022-11-05T04:47:10.016Z,4.099
2022-11-05T04:48:10.256Z,3.400
2022-11-05T04:49:10.701Z,3.700
2022-11-05T04:50:10.513Z,4.099
2022-11-05T04:51:10.163Z,3.5
2022-11-05T04:52:10.494Z,3.200
2022-11-05T04:53:10.381Z,3.299
2022-11-05T04:54:10.082Z,3.200
2022-11-05T04:55:10.460Z,3.299
2022-11-05T04:56:10.129Z,3.200
2022-11-05T04:57:10.858Z,3.099
2022-11-05T04:58:10.566Z,3.299
2022-11-05T05:00:11.015Z,2.599
2022-11-05T05:01:10.236Z,2.799
2022-11-05T05:02:10.349Z,3
2022-11-05T05:03:10.149Z,2.799
2022-11-05T05:04:09.800Z,3.200
2022-11-05T05:05:10.583Z,2.900
2022-11-05T05:06:10.253Z,3
2022-11-05T05:07:10.364Z,3.200
2022-11-05T05:08:10.038Z,3
2022-11-05T05:09:10.374Z,3.200
2022-11-05T05:10:09.967Z,3.099
2022-11-05T05:11:10.514Z,3.200
2022-11-05T05:12:10.281Z,2.900
2022-11-05T05:13:10.477Z,3
2022-11-05T05:14:10.294Z,2.900
2022-11-05T05:15:10.412Z,3
2022-11-05T05:16:09.872Z,2.700
2022-11-05T05:17:10.652Z,2.900
2022-11-05T05:18:10.280Z,3
2022-11-05T05:19:10.117Z,2.900
2022-11-05T05:20:09.908Z,3
2022-11-05T05:21:10.399Z,2.799
2022-11-05T05:22:09.990Z,2.900
2022-11-05T05:23:10.855Z,3.099
2022-11-05T05:24:10.489Z,2.900
2022-11-05T05:25:09.927Z,3.799
2022-11-05T05:26:09.696Z,3.5
2022-11-05T05:27:10.361Z,3.400
2022-11-05T05:28:10.100Z,3.5
2022-11-05T05:30:10.609Z,3.700
2022-11-05T05:32:10.737Z,3.799
2022-11-05T05:33:10.738Z,3.400
2022-11-05T05:34:09.862Z,3.799
2022-11-05T05:35:10.567Z,4.099
2022-11-05T05:36:11.501Z,3.599
2022-11-05T05:38:10.026Z,3.5
2022-11-05T05:39:10.990Z,4.5
2022-11-05T05:40:09.782Z,3.900
2022-11-05T05:41:10.714Z,3.599
2022-11-05T05:43:10.866Z,4.300
2022-11-05T05:44:10.531Z,4.199
2022-11-05T05:45:10.932Z,3.900
2022-11-05T05:46:10.231Z,3.700
2022-11-05T05:47:10.360Z,3.900
2022-11-05T05:48:10.657Z,3.700
2022-11-05T05:49:12.444Z,3.400
2022-11-05T05:50:09.935Z,3.299
2022-11-05T05:51:10.235Z,3.400
2022-11-05T05:52:10.599Z,3.799
2022-11-05T05:53:10.174Z,3.700
2022-11-05T05:55:10.346Z,3.5
2022-11-05T05:56:09.737Z,3.400
2022-11-05T05:57:10.285Z,3.200
2022-11-05T05:58:09.689Z,3.400
2022-11-05T05:59:10.151Z,3.200
2022-11-05T06:00:11.249Z,3.5
2022-11-05T06:01:14.138Z,3.299
2022-11-05T06:02:10.498Z,3.599
2022-11-05T06:03:10.585Z,3.799
2022-11-05T06:04:10.225Z,3.700
2022-11-05T06:05:15.324Z,3.900
2022-11-05T06:06:09.876Z,3.700
2022-11-05T06:07:10.473Z,3.799
2022-11-05T06:08:10.012Z,3.700
2022-11-05T06:09:10.733Z,3.299
2022-11-05T06:10:10.673Z,3.799
2022-11-05T06:11:10.616Z,3.700
2022-11-05T06:12:10.724Z,3.400
2022-11-05T06:13:18.379Z,3.5
2022-11-05T06:14:10.812Z,4.5
2022-11-05T06:16:10.359Z,3.599
2022-11-05T06:17:10.148Z,4.300
2022-11-05T06:18:10.671Z,4.400
2022-11-05T06:19:09.695Z,5
2022-11-05T06:20:10.231Z,4.5
2022-11-05T06:21:09.696Z,4.199
2022-11-05T06:23:11.098Z,4.400
2022-11-05T06:24:09.866Z,4.800
2022-11-05T06:25:10.489Z,5
2022-11-05T06:26:09.892Z,5.199
2022-11-05T06:27:10.557Z,5.300
2022-11-05T06:28:09.906Z,4.400
2022-11-05T06:29:10.139Z,5.099
2022-11-05T06:30:10.748Z,4.800
2022-11-05T06:31:10.467Z,4.599
2022-11-05T06:32:09.917Z,4.699
2022-11-05T06:33:10.629Z,4.900
2022-11-05T06:34:10.347Z,4.800
2022-11-05T06:35:10.046Z,4.400
2022-11-05T06:36:10.506Z,4.900
2022-11-05T06:37:09.872Z,4.599
2022-11-05T06:38:10.098Z,4.900
2022-11-05T06:39:10.718Z,5
2022-11-05T06:40:10.268Z,4.400
2022-11-05T06:41:10.914Z,4.5
2022-11-05T06:42:19.120Z,4.400
2022-11-05T06:43:10.243Z,5
2022-11-05T06:44:09.964Z,5.099
2022-11-05T06:45:10.623Z,4.800
2022-11-05T06:46:10.626Z,4.400
2022-11-05T06:47:10.428Z,4.5
2022-11-05T06:48:10.177Z,4.099
2022-11-05T06:49:11.008Z,4.599
2022-11-05T06:50:11.147Z,4
2022-11-05T06:51:10.747Z,4.099
2022-11-05T06:52:10.701Z,3.799
2022-11-05T06:53:11.162Z,4.5
2022-11-05T06:54:10.315Z,4.199
2022-11-05T06:55:11.335Z,3.799
2022-11-05T06:56:10.098Z,4.300
2022-11-05T06:57:10.737Z,4
2022-11-05T06:59:10.624Z,4.300
2022-11-05T07:00:10.918Z,3.799
2022-11-05T07:01:10.300Z,3.900
2022-11-05T07:02:10.792Z,3.799
2022-11-05T07:03:10.962Z,3.599
2022-11-05T07:04:10.822Z,3.799
2022-11-05T07:05:10.563Z,3.900
2022-11-05T07:06:10.133Z,3.5
2022-11-05T07:07:10.746Z,3.799
2022-11-05T07:08:10.476Z,3.700
2022-11-05T07:09:10.233Z,3.599
2022-11-05T07:10:10.975Z,3.700
2022-11-05T07:11:10.364Z,3.400
2022-11-05T07:12:10.021Z,3.700
2022-11-05T07:13:11.038Z,3.900
2022-11-05T07:14:10.374Z,4.099
2022-11-05T07:16:10.611Z,4.300
2022-11-05T07:17:09.944Z,4.400
2022-11-05T07:18:10.772Z,4.199
2022-11-05T07:19:10.268Z,4.099
2022-11-05T07:20:10.043Z,4.5
2022-11-05T07:21:10.597Z,3.799
2022-11-05T07:22:10.152Z,4.400
2022-11-05T07:23:11.190Z,4.199
2022-11-05T07:24:09.833Z,4
2022-11-05T07:25:10.444Z,3.700
2022-11-05T07:26:09.858Z,3.900
2022-11-05T07:27:10.506Z,4.199
2022-11-05T07:28:09.663Z,4.099
2022-11-05T07:29:10.109Z,3.799
2022-11-05T07:30:10.772Z,4.400
2022-11-05T07:31:10.200Z,3.799
2022-11-05T07:32:10.805Z,4.300
2022-11-05T07:35:10.409Z,4.800
2022-11-05T07:36:09.789Z,4.599
2022-11-05T07:37:10.129Z,4.300
2022-11-05T07:38:10.613Z,4.599
2022-11-05T07:39:09.988Z,4.900
2022-11-05T07:40:10.872Z,4.300
2022-11-05T07:41:10.047Z,4.599
2022-11-05T07:42:10.503Z,4.5
2022-11-05T07:43:10.211Z,4.599
2022-11-05T07:44:10.012Z,4.699
2022-11-05T07:47:10.394Z,4
2022-11-05T07:48:09.714Z,5
2022-11-05T07:49:09.696Z,4.699
2022-11-05T07:50:10.569Z,5.199
2022-11-05T07:51:10.666Z,5.300
2022-11-05T07:52:10.122Z,4.400
2022-11-05T07:53:10.473Z,5.300
2022-11-05T07:54:10.207Z,4.800
2022-11-05T07:55:10.603Z,4.300
2022-11-05T07:56:10.160Z,4.900
2022-11-05T07:57:10.884Z,4.5
2022-11-05T07:58:10.433Z,4.300
2022-11-05T08:00:11.379Z,4.199
2022-11-05T08:01:10.650Z,4.300
2022-11-05T08:02:11.228Z,4.099
2022-11-05T08:03:10.607Z,3.900
2022-11-05T08:04:10.508Z,4.699
2022-11-05T08:05:10.184Z,4.900
2022-11-05T08:06:10.755Z,4.400
2022-11-05T08:07:10.072Z,4.599
2022-11-05T08:08:10.548Z,4.800
2022-11-05T08:10:10.440Z,4.199
2022-11-05T08:11:09.916Z,4
2022-11-05T08:12:10.365Z,4.5
2022-11-05T08:13:11.189Z,4.300
2022-11-05T08:15:10.973Z,4.5
2022-11-05T08:16:11.151Z,4.599
2022-11-05T08:17:14.631Z,4.199
2022-11-05T08:18:10.285Z,4.099
2022-11-05T08:19:10.891Z,4
2022-11-05T08:20:10.512Z,4.099
2022-11-05T08:21:10.013Z,3.799
2022-11-05T08:22:10.608Z,3.700
2022-11-05T08:23:10.265Z,3.900
2022-11-05T08:24:10.071Z,3.700
2022-11-05T08:25:10.385Z,4.199
2022-11-05T08:26:15.029Z,4.099
2022-11-05T08:27:10.550Z,3.900
2022-11-05T08:28:10.034Z,3.799
2022-11-05T08:29:11.340Z,4.099
2022-11-05T08:30:10.845Z,3.599
2022-11-05T08:31:10.555Z,3.900
2022-11-05T08:32:09.940Z,3.700
2022-11-05T08:33:10.962Z,4.099
2022-11-05T08:34:10.651Z,4.199
2022-11-05T08:36:10.654Z,4.5
2022-11-05T08:37:10.027Z,4.300
2022-11-05T08:38:10.633Z,4.099
2022-11-05T08:39:15.799Z,4
2022-11-05T08:40:10.293Z,4.300
2022-11-05T08:41:10.042Z,4.199
2022-11-05T08:43:10.246Z,3.799
2022-11-05T08:44:23.634Z,4.099
2022-11-05T08:45:09.856Z,4.199
2022-11-05T08:46:24.708Z,3.900
2022-11-05T08:47:09.938Z,4.300
2022-11-05T08:48:24.524Z,3.900
2022-11-05T08:49:10.619Z,3.700
2022-11-05T08:50:10.242Z,3.599
2022-11-05T08:51:09.880Z,3.400
2022-11-05T08:52:10.211Z,4
2022-11-05T08:53:11.276Z,3.799
2022-11-05T08:54:09.936Z,4.300
2022-11-05T08:55:10.670Z,3.900
2022-11-05T08:56:10.419Z,3.299
2022-11-05T08:57:09.993Z,3.599
2022-11-05T08:58:10.641Z,3.900
2022-11-05T08:59:10.102Z,3.599
2022-11-05T09:01:10.128Z,3.799
2022-11-05T09:02:10.810Z,3.900
2022-11-05T09:03:10.193Z,4.099
2022-11-05T09:04:10.243Z,3.700
2022-11-05T09:05:11.069Z,3.799
2022-11-05T09:06:10.736Z,4
2022-11-05T09:07:10.067Z,3.700
2022-11-05T09:08:10.793Z,3.599
2022-11-05T09:09:10.313Z,3.400
2022-11-05T09:10:09.892Z,3.5
2022-11-05T09:11:10.039Z,3.400
2022-11-05T09:13:16.602Z,3.700
2022-11-05T09:14:10.277Z,3.400
2022-11-05T09:15:10.512Z,3.599
2022-11-05T09:16:09.940Z,3.299
2022-11-05T09:17:10.349Z,3.200
2022-11-05T09:18:09.904Z,3.599
2022-11-05T09:19:10.761Z,3.5
2022-11-05T09:20:10.268Z,3.099
2022-11-05T09:21:09.883Z,2.799
2022-11-05T09:22:10.695Z,3.200
2022-11-05T09:24:09.832Z,3.5
2022-11-05T09:25:10.475Z,3.599
2022-11-05T09:26:10.129Z,3.299
2022-11-05T09:27:10.399Z,4
2022-11-05T09:28:14.648Z,3.900
2022-11-05T09:29:14.245Z,3.599
2022-11-05T09:31:10.631Z,3.299
2022-11-05T09:32:10.243Z,3.5
2022-11-05T09:33:11.183Z,3.400
2022-11-05T09:34:09.671Z,3.299
2022-11-05T09:35:10.479Z,3.099
2022-11-05T09:36:10.135Z,3.299
2022-11-05T09:37:10.615Z,3.400
2022-11-05T09:39:10.137Z,3.099
2022-11-05T09:40:11.083Z,3.400
2022-11-05T09:41:09.594Z,3.099
2022-11-05T09:42:10.215Z,2.900
2022-11-05T09:43:10.150Z,2.599
2022-11-05T09:45:10.224Z,3.099
2022-11-05T09:46:09.999Z,3.400
2022-11-05T09:47:10.708Z,3
2022-11-05T09:48:10.097Z,2.5
2022-11-05T09:50:10.396Z,2.700
2022-11-05T09:52:10.712Z,2.599
2022-11-05T09:53:10.574Z,2.799
2022-11-05T09:54:10.092Z,2.599
2022-11-05T09:55:09.679Z,2.900
2022-11-05T09:56:10.673Z,2.400
2022-11-05T09:57:10.435Z,2.299
2022-11-05T09:58:10.154Z,2.5
2022-11-05T09:59:10.628Z,2.400
2022-11-05T10:01:09.962Z,2.5
2022-11-05T10:02:10.355Z,2.299
2022-11-05T10:04:10.111Z,2.400
2022-11-05T10:05:10.985Z,2.299
2022-11-05T10:06:09.640Z,2.200
2022-11-05T10:07:11.518Z,2
2022-11-05T10:08:10.298Z,2.5
2022-11-05T10:09:10.080Z,2.200
2022-11-05T10:11:10.365Z,2.400
2022-11-05T10:12:09.863Z,2.299
2022-11-05T10:13:10.404Z,2.400
2022-11-05T10:14:10.068Z,2
2022-11-05T10:16:10.289Z,2.299
2022-11-05T10:17:10.611Z,2.099
2022-11-05T10:18:10.383Z,2.400
2022-11-05T10:19:10.812Z,2
2022-11-05T10:22:09.867Z,2.5
2022-11-05T10:23:11.109Z,2.099
2022-11-05T10:24:10.040Z,2.400
2022-11-05T10:25:10.918Z,2.099
2022-11-05T10:26:10.618Z,1.899
2022-11-05T10:28:10.692Z,2.200
2022-11-05T10:29:10.289Z,1.899
2022-11-05T10:30:10.455Z,2.200
2022-11-05T10:32:10.146Z,2.400
2022-11-05T10:33:10.425Z,2.099
2022-11-05T10:34:10.059Z,2.200
2022-11-05T10:35:10.900Z,2.099
2022-11-05T10:36:10.753Z,2.200
2022-11-05T10:37:10.341Z,2.299
2022-11-05T10:38:09.948Z,2.099
2022-11-05T10:39:11.129Z,2.599
2022-11-05T10:41:10.302Z,2.5
2022-11-05T10:42:10.041Z,2.400
2022-11-05T10:43:10.915Z,2.299
2022-11-05T10:45:10.701Z,2.200
2022-11-05T10:48:11.150Z,2.400
2022-11-05T10:50:10.293Z,2.200
2022-11-05T10:51:10.126Z,2.400
2022-11-05T10:52:10.151Z,2.099
2022-11-05T10:54:10.513Z,2.200
2022-11-05T10:55:15.156Z,2.400
2022-11-05T10:56:10.537Z,2.099
2022-11-05T10:57:10.274Z,1.799
2022-11-05T10:58:10.044Z,2
2022-11-05T10:59:12.345Z,2.400
2022-11-05T11:00:10.463Z,2
2022-11-05T11:01:10.771Z,2.200
2022-11-05T11:02:10.583Z,2
2022-11-05T11:03:18.463Z,2.200
2022-11-05T11:04:10.110Z,2.299
2022-11-05T11:05:10.657Z,2.099
2022-11-05T11:07:18.441Z,2
2022-11-05T11:09:10.125Z,2.200
2022-11-05T11:10:10.014Z,1.899
2022-11-05T11:11:10.989Z,2.099
2022-11-05T11:14:10.080Z,2.299
2022-11-05T11:15:11.017Z,2.200
2022-11-05T11:16:10.787Z,2
2022-11-05T11:17:10.589Z,2.200
2022-11-05T11:18:10.312Z,2.400
2022-11-05T11:19:10.232Z,2.200
2022-11-05T11:20:10.254Z,2.099
2022-11-05T11:21:25.206Z,2
2022-11-05T11:22:10.208Z,2.299
2022-11-05T11:23:10.838Z,2.099
2022-11-05T11:24:10.683Z,2.299
2022-11-05T11:25:10.399Z,2.099
2022-11-05T11:27:29.746Z,1.899
2022-11-05T11:28:10.201Z,2.099
2022-11-05T11:29:10.287Z,1.799
2022-11-05T11:30:10.336Z,1.899
2022-11-05T11:32:10.632Z,1.700
2022-11-05T11:33:10.706Z,1.799
2022-11-05T11:34:10.627Z,2.099
2022-11-05T11:36:10.778Z,1.899
2022-11-05T11:37:12.941Z,1.700
2022-11-05T11:39:10.249Z,1.799
2022-11-05T11:40:10.431Z,2
2022-11-05T11:43:10.758Z,2.099
2022-11-05T11:44:10.989Z,2.200
2022-11-05T11:46:14.915Z,1.899
2022-11-05T11:48:10.135Z,2
2022-11-05T11:49:10.972Z,1.799
2022-11-05T11:50:10.784Z,1.600
2022-11-05T11:52:10.936Z,1.899
2022-11-05T11:54:09.980Z,1.799
2022-11-05T11:55:10.960Z,1.700
2022-11-05T11:56:10.749Z,1.600
2022-11-05T11:57:14.268Z,1.399
2022-11-05T11:58:10.054Z,1.799
2022-11-05T11:59:10.961Z,2.099
2022-11-05T12:01:09.939Z,2
2022-11-05T12:03:10.805Z,1.899
2022-11-05T12:05:10.674Z,1.700
2022-11-05T12:06:10.289Z,2.299
2022-11-05T12:07:10.019Z,1.899
2022-11-05T12:08:10.545Z,1.799
2022-11-05T12:10:10.714Z,1.700
2022-11-05T12:11:10.571Z,1.899
2022-11-05T12:13:11.172Z,1.799
2022-11-05T12:14:10.080Z,1.899
2022-11-05T12:15:10.851Z,2
2022-11-05T12:17:10.260Z,1.899
2022-11-05T12:18:10.318Z,1.799
2022-11-05T12:19:10.045Z,1.700
2022-11-05T12:20:10.821Z,2
2022-11-05T12:21:10.367Z,2.099
2022-11-05T12:22:09.925Z,1.899
2022-11-05T12:24:10.614Z,2.200
2022-11-05T12:25:10.560Z,2
2022-11-05T12:26:10.095Z,2.200
2022-11-05T12:27:10.867Z,1.799
2022-11-05T12:28:10.656Z,1.899
2022-11-05T12:29:18.795Z,2.200
2022-11-05T12:30:09.985Z,2.099
2022-11-05T12:32:10.438Z,1.899
2022-11-05T12:33:10.444Z,2.200
2022-11-05T12:34:10.228Z,1.799
2022-11-05T12:36:10.188Z,2.400
2022-11-05T12:37:09.982Z,2.200
2022-11-05T12:38:10.558Z,2.400
2022-11-05T12:39:10.498Z,2.299
2022-11-05T12:40:10.197Z,2.200
2022-11-05T12:41:09.901Z,2.400
2022-11-05T12:42:10.579Z,2.5
2022-11-05T12:43:11.936Z,2.599
2022-11-05T12:44:10.604Z,2.299
2022-11-05T12:45:10.363Z,2.599
2022-11-05T12:46:10.166Z,2.700
2022-11-05T12:47:10.186Z,2.599
2022-11-05T12:48:10.695Z,2.400
2022-11-05T12:49:10.023Z,2.299
2022-11-05T12:50:10.213Z,2.200
2022-11-05T12:51:10.592Z,2
2022-11-05T12:52:10.310Z,2.200
2022-11-05T12:53:10.351Z,2.400
2022-11-05T12:54:10.022Z,2
2022-11-05T12:55:10.929Z,2.400
2022-11-05T12:56:10.663Z,2.200
2022-11-05T12:57:10.466Z,2.099
2022-11-05T12:59:10.475Z,1.799
2022-11-05T13:00:11.417Z,2.299
2022-11-05T13:01:10.658Z,2
2022-11-05T13:03:10.537Z,2.099
2022-11-05T13:04:10.620Z,1.899
2022-11-05T13:05:10.411Z,2
2022-11-05T13:07:10.063Z,1.799
2022-11-05T13:08:10.100Z,2
2022-11-05T13:09:09.934Z,1.899
2022-11-05T13:10:11.008Z,1.799
2022-11-05T13:11:10.017Z,1.899
2022-11-05T13:12:09.855Z,1.600
2022-11-05T13:13:10.969Z,2.099
2022-11-05T13:14:09.886Z,2.200
2022-11-05T13:15:10.738Z,2
2022-11-05T13:16:10.512Z,1.899
2022-11-05T13:17:10.193Z,2
2022-11-05T13:18:15.007Z,2.299
2022-11-05T13:19:10.345Z,2
2022-11-05T13:20:16.044Z,1.799
2022-11-05T13:21:09.910Z,1.700
2022-11-05T13:22:14.800Z,1.899
2022-11-05T13:23:10.416Z,1.799
2022-11-05T13:24:10.085Z,2
2022-11-05T13:25:09.851Z,1.899
2022-11-05T13:26:13.420Z,2
2022-11-05T13:27:10.634Z,2.099
2022-11-05T13:28:10.676Z,1.799
2022-11-05T13:29:10.367Z,1.899
2022-11-05T13:30:10.246Z,2
2022-11-05T13:32:10.842Z,1.799
2022-11-05T13:33:10.538Z,2.200
2022-11-05T13:34:10.628Z,1.899
2022-11-05T13:36:10.583Z,1.700
2022-11-05T13:37:09.909Z,2.200
2022-11-05T13:38:10.439Z,1.899
2022-11-05T13:41:10.099Z,1.799
2022-11-05T13:43:10.655Z,2
2022-11-05T13:45:10.075Z,1.799
2022-11-05T13:46:10.455Z,1.700
2022-11-05T13:48:10.512Z,2
2022-11-05T13:50:10.393Z,1.899
2022-11-05T13:51:10.571Z,1.700
2022-11-05T13:52:10.099Z,1.799
2022-11-05T13:54:10.545Z,1.899
2022-11-05T13:55:09.741Z,1.700
2022-11-05T13:56:10.501Z,1.799
2022-11-05T14:00:10.329Z,1.700
2022-11-05T14:01:10.468Z,1.799
2022-11-05T14:03:10.599Z,1.700
2022-11-05T14:04:10.708Z,1.600
2022-11-05T14:05:10.207Z,1.799
2022-11-05T14:06:09.831Z,2.200
2022-11-05T14:07:10.196Z,1.600
2022-11-05T14:08:09.620Z,1.799
2022-11-05T14:09:10.488Z,1.899
2022-11-05T14:10:10.260Z,1.700
2022-11-05T14:11:10.308Z,1.899
2022-11-05T14:13:11.181Z,1.799
2022-11-05T14:14:10.423Z,1.700
2022-11-05T14:15:10.179Z,2
2022-11-05T14:17:10.463Z,1.899
2022-11-05T14:20:10.236Z,1.600
2022-11-05T14:21:10.610Z,2.200
2022-11-05T14:22:09.938Z,1.899
2022-11-05T14:23:10.951Z,1.799
2022-11-05T14:26:10.652Z,1.700
2022-11-05T14:28:10.088Z,1.600
2022-11-05T14:29:10.536Z,1.700
2022-11-05T14:30:10.404Z,1.899
2022-11-05T14:32:10.268Z,1.799
2022-11-05T14:33:10.375Z,1.700
2022-11-05T14:34:10.088Z,1.600
2022-11-05T14:35:10.682Z,1.799
2022-11-05T14:36:10.689Z,2
2022-11-05T14:37:10.236Z,1.700
2022-11-05T14:38:09.936Z,1.899
2022-11-05T14:39:10.402Z,2.200
2022-11-05T14:40:10.143Z,2.099
2022-11-05T14:41:10.539Z,1.899
2022-11-05T14:43:10.604Z,1.799
2022-11-05T14:47:10.551Z,1.600
2022-11-05T14:48:10.158Z,1.899
2022-11-05T14:50:10.072Z,1.799
2022-11-05T14:52:10.260Z,1.899
2022-11-05T14:53:10.918Z,1.700
2022-11-05T14:54:09.743Z,1.600
2022-11-05T14:55:10.025Z,1.899
2022-11-05T14:56:10.556Z,1.799
2022-11-05T14:57:10.119Z,1.700
2022-11-05T15:00:10.538Z,1.799
2022-11-05T15:01:10.389Z,1.600
2022-11-05T15:02:10.386Z,1.899
2022-11-05T15:03:10.563Z,1.700
2022-11-05T15:04:10.723Z,1.299
2022-11-05T15:05:10.213Z,1.600
2022-11-05T15:06:10.647Z,1.700
2022-11-05T15:07:09.332Z,1.899
2022-11-05T15:08:10.018Z,1.5
2022-11-05T15:09:10.810Z,2
2022-11-05T15:10:11.052Z,1.899
2022-11-05T15:11:10.813Z,1.799